mattlgroff

38 files totalling 6.50 GB
Name Size DLs Cmts Upload Date
462.00 KB 49 0 2014-09-11 21:20:51
Description: For Facer on the Moto 360.
1.33 GB 115 0 2014-04-10 03:05:23
22.46 KB 8 0 2014-02-06 02:06:04
Description: De-Odexed Adam.apk from Moto X 4.4.2 RetailUS
8.30 MB 1319 1 2013-08-26 21:18:58
Description: No file_contexts supressed, CWM 6.0.3.6 Moto X
11.91 MB 40 0 2013-08-26 18:27:28
Description: No Touch Yet.
8.31 MB 8 0 2013-08-26 16:16:03
Description: 8/26/13 Build of Moto X CWM 6.0.3.6, now with F2FS fixes.
21.39 KB 9 0 2013-08-26 16:03:40
8.29 MB 6 0 2013-08-25 17:19:57
Description: Unofficial CWM 6.0.3.5 for Moto X - Unlocked BL only!
8.13 MB 351 0 2013-07-30 23:48:51
Description: Nexus 7 (2013-Wifi) OUDHS 1.0.3.4
6.34 MB 56 1 2013-07-24 00:43:20
607.60 MB 12381 9 2013-06-03 17:26:35
7.25 MB 630 2 2013-05-31 00:55:19
Description: Unofficial TWRP 2.5.0.0 for RAZR HD XT925
6.65 MB 222 0 2013-05-30 22:33:36
Description: OUDHS Recovery for the RAZR HD XT925
6.50 MB 235 0 2013-05-30 22:29:35
Description: OUDHS Recovery for the DROID RAZR HD XT926
6.76 MB 681 0 2013-05-30 22:07:55
Description: Unofficial CWM 6.0.3.2 for RAZR HD XT925
6.76 MB 1518 1 2013-05-30 20:01:33
Description: Unofficial CWM 6.0.3.2 for Atrix HD
6.61 MB 615 0 2013-05-30 19:58:16
Description: Unofficial CWM 6.0.3.2 for DROID RAZR HD XT926
7.10 MB 407 0 2013-05-30 15:10:26
Description: Unofficial TWRP 2.5.0.0 for DROID RAZR HD XT926
7.42 MB 4088 1 2013-05-30 15:03:49
Description: Unofficial TWRP 2.5.0.0 for DROID RAZR M XT907
6.65 MB 659 0 2013-05-29 19:55:46
Description: Unofficial CWM 6.0.3.2 for RAZR M 201M
6.74 MB 318 0 2013-05-29 19:54:16
Description: Unofficial CWM 6.0.3.2 for RAZR M XT905
6.59 MB 2264 2 2013-05-28 06:09:58
Description: Unofficial CWM 6.0.3.2 for DROID RAZR M XT907
5.92 MB 16783 1 2013-05-18 05:54:53
Description: Motorola USB Drivers 32/64 Version 6.2.0
10.28 MB 1688 1 2013-05-16 04:52:47
Description: XT890 Homemade Fastboot Template
9.86 MB 694 1 2013-05-16 04:38:18
10.34 MB 1888 1 2013-05-11 22:09:51
185.71 KB 272 0 2013-05-11 13:09:06
8.41 MB 1139 3 2013-05-07 18:48:56
595.38 MB 10450 9 2013-04-24 22:08:40
598.04 MB 853 1 2013-04-16 20:33:31
Description: DROID RAZR HD Utility 1.20
303.15 MB 14 0 2013-04-16 00:16:40
303.15 MB 1 0 2013-04-15 16:24:55
303.15 MB 3 0 2013-04-15 14:35:48
303.15 MB 11 0 2013-04-15 13:29:53
497.60 MB 5851 1 2013-03-26 00:49:53
Description: DROID 4 Utility -- XT894 Jellybean for Windows, Mac, and Linux
565.50 MB 3029 5 2013-03-21 02:18:44
Description: DROID RAZR M Utility 1.10
566.66 MB 568 0 2013-03-18 16:40:16
Description: DROID RAZR HD Utility
480.00 MB 41572 16 2013-03-15 08:02:00
Description: DROID RAZR Utility -- XT912 Jellybean for Windows, Mac, and Linux